Time;durP1;ratioP1;P1;durP2;ratioP2;P2;SDS_P1;SDS_P2;PMS_P1;PMS_P2;Temp;Humidity;BMP_temperature;BMP_pressure;BME280_temperature;BME280_humidity;BME280_pressure;Samples;Min_cycle;Max_cycle;Signal;HPM_P1;HPM_P2
2020/12/20 00:00:27;;;;;;;6.82;4.25;;;10.40;90.20;;;;;;5012577;28;20024;-83
2020/12/20 00:02:54;;;;;;;6.13;3.70;;;10.40;90.20;;;;;;5023876;28;20025;-82
2020/12/20 00:05:20;;;;;;;5.45;3.70;;;10.40;90.20;;;;;;5023270;28;20028;-83
2020/12/20 00:07:46;;;;;;;6.50;3.80;;;10.40;90.20;;;;;;5024557;28;20058;-84
2020/12/20 00:10:12;;;;;;;6.38;4.55;;;10.40;90.30;;;;;;5044414;28;20136;-84
2020/12/20 00:12:38;;;;;;;5.68;3.85;;;10.30;90.40;;;;;;5015146;28;22845;-84
2020/12/20 00:15:04;;;;;;;8.65;4.03;;;10.30;90.30;;;;;;5044707;28;20079;-84
2020/12/20 00:17:30;;;;;;;7.80;3.90;;;10.30;90.40;;;;;;5006313;28;20063;-82
2020/12/20 00:19:55;;;;;;;6.40;3.55;;;10.30;90.40;;;;;;5036395;28;20074;-83
2020/12/20 00:22:21;;;;;;;5.88;4.43;;;10.20;90.40;;;;;;5028343;28;20565;-83
2020/12/20 00:24:46;;;;;;;5.05;3.90;;;10.30;90.40;;;;;;5025666;28;20120;-83
2020/12/20 00:27:13;;;;;;;5.70;3.83;;;10.30;90.50;;;;;;5027849;28;20051;-82
2020/12/20 00:29:38;;;;;;;5.32;3.75;;;10.20;90.50;;;;;;5026325;28;21000;-84
2020/12/20 00:32:05;;;;;;;5.53;3.65;;;10.20;90.50;;;;;;5012809;28;20148;-83
2020/12/20 00:34:30;;;;;;;4.93;3.60;;;10.30;90.50;;;;;;5011805;28;20021;-83
2020/12/20 00:36:56;;;;;;;10.07;4.65;;;10.30;90.50;;;;;;5026609;28;20043;-84
2020/12/20 00:39:22;;;;;;;6.20;3.40;;;10.30;90.50;;;;;;5043382;28;20514;-82
2020/12/20 00:41:58;;;;;;;4.03;3.60;;;10.30;90.40;;;;;;5023769;28;20035;-84
2020/12/20 00:44:24;;;;;;;;;;;10.20;90.50;;;;;;5056204;28;20089;-82
2020/12/20 00:46:50;;;;;;;6.03;4.13;;;10.30;90.50;;;;;;5031741;28;20006;-81
2020/12/20 00:49:15;;;;;;;6.07;3.78;;;10.30;90.60;;;;;;5030248;28;20112;-83
2020/12/20 00:51:41;;;;;;;3.78;3.08;;;10.20;90.50;;;;;;5046949;28;20123;-84
2020/12/20 00:54:06;;;;;;;4.97;2.90;;;10.30;90.80;;;;;;5014316;28;20120;-82
2020/12/20 00:56:32;;;;;;;5.22;3.35;;;10.30;90.60;;;;;;5034218;28;20036;-84
2020/12/20 00:58:58;;;;;;;4.70;3.33;;;10.30;90.50;;;;;;5014201;28;20191;-82
2020/12/20 01:01:23;;;;;;;6.35;2.88;;;10.30;90.50;;;;;;5014826;28;20466;-83
2020/12/20 01:03:49;;;;;;;6.07;3.42;;;10.30;90.40;;;;;;5025968;28;20047;-82
2020/12/20 01:06:18;;;;;;;5.53;3.22;;;10.30;90.50;;;;;;5028064;28;20032;-83
2020/12/20 01:08:44;;;;;;;5.20;3.35;;;10.30;90.40;;;;;;5030682;28;20033;-82
2020/12/20 01:11:09;;;;;;;4.40;2.95;;;10.20;90.50;;;;;;5027863;28;20040;-83
2020/12/20 01:13:36;;;;;;;5.07;3.05;;;10.20;90.50;;;;;;5016653;28;20404;-82
2020/12/20 01:16:02;;;;;;;3.33;2.88;;;10.20;90.50;;;;;;5026080;28;20601;-83
2020/12/20 01:18:27;;;;;;;3.47;2.72;;;10.30;90.50;;;;;;5036098;28;20044;-83
2020/12/20 01:20:53;;;;;;;4.80;2.90;;;10.30;90.60;;;;;;5043079;28;20506;-83
2020/12/20 01:23:18;;;;;;;5.32;3.55;;;10.20;90.60;;;;;;5036650;28;20440;-82
2020/12/20 01:25:44;;;;;;;4.15;2.90;;;10.30;90.60;;;;;;5025470;28;20032;-82
2020/12/20 01:28:09;;;;;;;4.07;2.90;;;10.20;90.50;;;;;;5029919;28;20032;-83
2020/12/20 01:30:35;;;;;;;4.50;2.85;;;10.20;90.60;;;;;;5048533;28;20028;-82
2020/12/20 01:33:01;;;;;;;8.50;2.72;;;10.30;90.60;;;;;;5038826;28;20408;-82
2020/12/20 01:35:26;;;;;;;4.95;2.80;;;10.30;90.50;;;;;;5043132;28;20055;-84
2020/12/20 01:37:52;;;;;;;5.78;2.70;;;10.30;90.50;;;;;;5042229;28;20028;-82
2020/12/20 01:40:17;;;;;;;6.40;2.92;;;10.30;90.50;;;;;;5044034;28;20368;-82
2020/12/20 01:42:43;;;;;;;3.97;2.65;;;10.30;90.60;;;;;;5027205;28;20017;-83
2020/12/20 01:45:09;;;;;;;4.07;2.88;;;10.30;90.60;;;;;;5047011;28;20040;-83
2020/12/20 01:47:34;;;;;;;6.32;2.80;;;10.30;90.50;;;;;;5047165;28;20021;-83
2020/12/20 01:50:00;;;;;;;5.88;2.75;;;10.30;90.50;;;;;;5026292;28;20021;-82
2020/12/20 01:52:26;;;;;;;4.50;2.95;;;10.30;90.50;;;;;;5013404;28;20056;-82
2020/12/20 01:54:56;;;;;;;6.95;3.00;;;10.30;90.50;;;;;;5039793;28;20510;-81
2020/12/20 01:57:22;;;;;;;3.92;2.85;;;10.30;90.50;;;;;;5031997;28;20475;-82
2020/12/20 01:59:48;;;;;;;4.15;3.10;;;10.30;90.40;;;;;;5027849;28;20033;-82
2020/12/20 02:02:13;;;;;;;3.65;2.80;;;10.30;90.40;;;;;;5031298;28;20501;-83
2020/12/20 02:04:40;;;;;;;6.88;3.50;;;10.30;90.40;;;;;;5015992;28;20514;-82
2020/12/20 02:07:06;;;;;;;9.45;3.00;;;10.40;90.50;;;;;;5010436;28;20562;-81
2020/12/20 02:09:31;;;;;;;4.70;3.15;;;10.30;90.40;;;;;;5014422;28;20025;-83
2020/12/20 02:12:04;;;;;;;5.72;3.15;;;10.30;90.40;;;;;;5054454;28;20036;-82
2020/12/20 02:14:29;;;;;;;4.95;2.75;;;10.30;90.50;;;;;;5041397;28;20043;-82
2020/12/20 02:16:55;;;;;;;5.57;2.78;;;10.30;90.50;;;;;;5038717;28;20115;-79
2020/12/20 02:19:21;;;;;;;3.70;2.83;;;10.30;90.50;;;;;;5031340;28;20116;-81
2020/12/20 02:21:46;;;;;;;5.15;2.72;;;10.30;90.50;;;;;;5041589;28;20051;-81
2020/12/20 02:24:12;;;;;;;4.38;2.88;;;10.40;90.50;;;;;;5028770;28;20036;-80
2020/12/20 02:26:37;;;;;;;6.40;3.20;;;10.40;90.50;;;;;;5045677;28;20035;-82
2020/12/20 02:29:03;;;;;;;6.80;2.70;;;10.30;90.40;;;;;;5026594;28;20024;-82
2020/12/20 02:31:29;;;;;;;4.55;2.95;;;10.30;90.40;;;;;;5038755;28;20028;-81
2020/12/20 02:33:54;;;;;;;3.88;2.85;;;10.40;90.40;;;;;;5056162;28;20032;-81
2020/12/20 02:36:20;;;;;;;6.13;3.22;;;10.40;90.40;;;;;;5034180;28;20464;-82
2020/12/20 02:38:45;;;;;;;5.68;3.15;;;10.40;90.40;;;;;;5026399;28;20420;-81
2020/12/20 02:41:11;;;;;;;7.20;4.40;;;10.40;90.40;;;;;;5028531;28;20427;-82
2020/12/20 02:43:36;;;;;;;6.50;3.30;;;10.30;90.40;;;;;;5011908;28;20472;-82
2020/12/20 02:46:02;;;;;;;10.07;3.97;;;10.40;90.50;;;;;;5025093;28;20028;-82
2020/12/20 02:48:27;;;;;;;6.47;3.50;;;10.30;90.50;;;;;;5028781;28;20085;-82
2020/12/20 02:50:53;;;;;;;6.45;3.53;;;10.30;90.50;;;;;;5040461;28;20488;-81
2020/12/20 02:53:19;;;;;;;4.95;3.60;;;10.40;90.50;;;;;;5039932;28;20032;-82
2020/12/20 02:55:44;;;;;;;6.13;4.03;;;10.40;90.50;;;;;;5028519;28;20044;-80
2020/12/20 02:58:10;;;;;;;7.32;3.42;;;10.30;90.50;;;;;;5043662;28;20028;-82
2020/12/20 03:00:38;;;;;;;6.80;3.65;;;10.40;90.50;;;;;;5027884;28;20036;-81
2020/12/20 03:03:04;;;;;;;6.05;3.25;;;10.40;90.50;;;;;;5027009;28;20154;-82
2020/12/20 03:05:29;;;;;;;5.78;3.30;;;10.40;90.50;;;;;;5036360;28;20400;-80
2020/12/20 03:07:55;;;;;;;4.28;3.08;;;10.30;90.40;;;;;;5037574;28;20035;-80
2020/12/20 03:10:20;;;;;;;6.57;3.50;;;10.30;90.50;;;;;;5041580;28;20639;-82
2020/12/20 03:12:46;;;;;;;6.15;3.75;;;10.30;90.50;;;;;;5040856;28;20034;-82
2020/12/20 03:15:12;;;;;;;4.45;2.72;;;10.20;90.50;;;;;;5012061;28;20047;-82
2020/12/20 03:17:37;;;;;;;4.05;3.00;;;10.20;90.70;;;;;;5013506;28;20052;-82
2020/12/20 03:20:03;;;;;;;6.68;3.47;;;10.20;90.70;;;;;;5023791;28;20048;-81
2020/12/20 03:22:29;;;;;;;4.50;3.25;;;10.20;90.70;;;;;;5012538;28;20028;-81
2020/12/20 03:24:55;;;;;;;4.90;3.00;;;10.20;90.60;;;;;;5037918;28;20028;-79
2020/12/20 03:27:20;;;;;;;7.20;3.80;;;10.20;90.70;;;;;;5042438;28;20392;-82
2020/12/20 03:29:46;;;;;;;5.47;3.40;;;10.20;90.70;;;;;;5040826;28;20044;-82
2020/12/20 03:32:11;;;;;;;8.45;3.53;;;10.20;90.70;;;;;;5073124;28;20032;-81
2020/12/20 03:34:37;;;;;;;5.43;3.65;;;10.20;90.70;;;;;;5028881;28;20421;-82
2020/12/20 03:37:02;;;;;;;5.05;3.47;;;10.10;90.70;;;;;;5025116;28;20112;-81
2020/12/20 03:39:28;;;;;;;6.20;3.20;;;10.20;90.80;;;;;;5015064;28;20582;-82
2020/12/20 03:41:53;;;;;;;5.28;3.65;;;10.10;90.80;;;;;;5028746;28;20110;-82
2020/12/20 03:44:19;;;;;;;6.35;3.55;;;10.10;90.80;;;;;;5032881;28;20523;-82
2020/12/20 03:46:44;;;;;;;5.18;4.10;;;10.10;90.80;;;;;;5023847;28;20078;-81
2020/12/20 03:49:10;;;;;;;6.38;3.55;;;10.10;90.80;;;;;;5028424;28;20043;-81
2020/12/20 03:51:35;;;;;;;4.15;3.45;;;10.10;90.80;;;;;;5012524;28;20032;-82
2020/12/20 03:54:03;;;;;;;7.28;3.88;;;10.00;90.80;;;;;;5023772;28;20028;-84
2020/12/20 03:56:29;;;;;;;5.75;3.65;;;9.90;91.40;;;;;;5036370;28;20040;-80
2020/12/20 03:58:54;;;;;;;5.45;3.95;;;9.90;91.40;;;;;;5051568;28;20105;-78
2020/12/20 04:01:20;;;;;;;4.88;3.55;;;10.00;90.90;;;;;;5011720;28;20039;-82
2020/12/20 04:03:46;;;;;;;4.60;2.65;;;9.90;91.30;;;;;;5027499;28;20041;-82
2020/12/20 04:06:11;;;;;;;4.80;3.00;;;9.90;91.40;;;;;;5045059;28;20036;-81
2020/12/20 04:08:37;;;;;;;3.97;3.13;;;9.90;91.50;;;;;;5045336;28;20032;-80
2020/12/20 04:11:02;;;;;;;10.10;3.72;;;9.90;91.50;;;;;;5038923;28;20059;-83
2020/12/20 04:13:32;;;;;;;5.88;3.45;;;9.80;91.50;;;;;;5014907;28;20028;-83
2020/12/20 04:16:07;;;;;;;6.75;4.00;;;9.80;91.50;;;;;;5025776;28;20028;-83
2020/12/20 04:18:33;;;;;;;6.43;3.60;;;9.80;91.50;;;;;;5028956;28;20472;-82
2020/12/20 04:20:59;;;;;;;6.03;3.40;;;9.70;91.50;;;;;;5023729;28;20028;-83
2020/12/20 04:23:25;;;;;;;5.97;3.25;;;9.70;91.50;;;;;;5056414;28;20112;-82
2020/12/20 04:25:50;;;;;;;5.05;3.17;;;9.70;91.80;;;;;;5029101;28;20048;-83
2020/12/20 04:28:16;;;;;;;8.88;3.38;;;9.60;91.70;;;;;;5038215;28;20079;-82
2020/12/20 04:30:41;;;;;;;4.95;3.63;;;9.60;91.70;;;;;;5021881;28;20039;-82
2020/12/20 04:33:07;;;;;;;8.40;3.50;;;9.60;91.70;;;;;;5017558;28;20399;-81
2020/12/20 04:35:32;;;;;;;4.15;3.30;;;9.60;91.70;;;;;;5009943;28;20052;-82
2020/12/20 04:37:58;;;;;;;5.80;3.47;;;9.60;91.90;;;;;;5025694;28;20060;-82
2020/12/20 04:40:24;;;;;;;3.88;3.00;;;9.60;91.80;;;;;;5042733;28;20082;-81
2020/12/20 04:42:50;;;;;;;5.85;3.28;;;9.60;91.90;;;;;;5025342;28;20035;-82
2020/12/20 04:45:16;;;;;;;7.22;3.35;;;9.50;91.80;;;;;;5031999;28;20475;-83
2020/12/20 04:47:43;;;;;;;8.63;4.55;;;9.60;92.00;;;;;;5030044;28;20032;-81
2020/12/20 04:50:08;;;;;;;4.47;2.97;;;9.60;91.90;;;;;;5026488;28;20139;-83
2020/12/20 04:52:34;;;;;;;8.45;3.95;;;9.60;91.80;;;;;;5011869;28;20039;-83
2020/12/20 04:55:00;;;;;;;6.30;4.18;;;9.50;91.90;;;;;;5025732;28;20029;-82
2020/12/20 04:57:25;;;;;;;6.68;3.60;;;9.50;91.90;;;;;;5015537;28;20464;-82
2020/12/20 04:59:50;;;;;;;5.28;3.05;;;9.60;92.30;;;;;;5028774;28;20111;-83
2020/12/20 05:02:16;;;;;;;6.35;3.38;;;9.60;92.00;;;;;;5041511;28;20032;-82
2020/12/20 05:04:42;;;;;;;5.25;3.58;;;9.50;92.10;;;;;;5014391;28;20055;-83
2020/12/20 05:07:07;;;;;;;5.22;3.63;;;9.60;92.00;;;;;;5027149;28;20378;-82
2020/12/20 05:09:45;;;;;;;6.53;4.50;;;9.50;92.00;;;;;;5014696;28;20044;-83
2020/12/20 05:12:25;;;;;;;6.68;4.22;;;9.50;92.10;;;;;;5025328;28;20036;-81
2020/12/20 05:14:51;;;;;;;6.50;4.00;;;9.50;92.20;;;;;;5008902;28;20032;-82
2020/12/20 05:17:17;;;;;;;5.85;4.00;;;9.50;92.00;;;;;;5024822;28;20038;-81
2020/12/20 05:19:43;;;;;;;5.63;3.78;;;9.50;92.10;;;;;;5014114;28;20051;-82
2020/12/20 05:22:15;;;;;;;5.78;3.45;;;9.50;92.10;;;;;;5029908;28;20037;-82
2020/12/20 05:24:41;;;;;;;6.60;3.28;;;9.50;92.10;;;;;;5077592;28;20024;-81
2020/12/20 05:27:18;;;;;;;6.30;4.70;;;9.50;92.00;;;;;;5015207;28;20033;-83
2020/12/20 05:29:43;;;;;;;6.07;3.90;;;9.50;92.10;;;;;;5040515;28;20040;-82
2020/12/20 05:32:22;;;;;;;7.65;3.72;;;9.40;92.10;;;;;;5029639;28;20037;-80
2020/12/20 05:35:09;;;;;;;5.05;3.47;;;9.40;92.10;;;;;;5031432;28;20034;-82
2020/12/20 05:37:35;;;;;;;7.75;3.55;;;9.40;92.20;;;;;;5058077;28;20110;-81
2020/12/20 05:40:07;;;;;;;6.05;4.15;;;9.40;92.30;;;;;;5039770;28;20028;-81
2020/12/20 05:42:32;;;;;;;5.20;4.00;;;9.40;92.20;;;;;;5044164;28;20040;-81
2020/12/20 05:45:08;;;;;;;7.32;3.80;;;9.50;92.20;;;;;;5056738;28;20608;-82
2020/12/20 05:47:33;;;;;;;6.88;4.20;;;9.40;92.20;;;;;;5053525;28;20028;-82
2020/12/20 05:49:59;;;;;;;4.90;3.25;;;9.50;92.20;;;;;;5055256;28;20111;-81
2020/12/20 05:52:24;;;;;;;5.35;4.05;;;9.40;92.20;;;;;;5017109;28;20032;-83
2020/12/20 05:54:50;;;;;;;4.18;3.55;;;9.40;92.20;;;;;;5039542;28;20430;-81
2020/12/20 05:57:19;;;;;;;5.68;3.85;;;9.40;92.20;;;;;;5014969;28;20505;-81
2020/12/20 05:59:49;;;;;;;6.20;3.50;;;9.40;92.20;;;;;;5017548;28;20476;-82
2020/12/20 06:02:15;;;;;;;4.57;3.65;;;9.40;92.20;;;;;;5053620;28;20029;-82
2020/12/20 06:04:44;;;;;;;6.18;3.65;;;9.50;92.10;;;;;;5032154;28;20035;-83
2020/12/20 06:07:10;;;;;;;6.68;3.92;;;9.40;92.20;;;;;;5045123;28;20055;-83
2020/12/20 06:09:49;;;;;;;7.97;3.88;;;9.40;92.20;;;;;;5029923;28;20185;-82
2020/12/20 06:12:17;;;;;;;3.90;3.45;;;9.40;92.20;;;;;;5029584;28;20113;-81
2020/12/20 06:14:43;;;;;;;5.35;3.42;;;9.40;92.30;;;;;;5031107;28;20064;-82
2020/12/20 06:17:08;;;;;;;6.88;4.05;;;9.40;92.30;;;;;;5029077;28;20123;-81
2020/12/20 06:19:58;;;;;;;7.88;3.90;;;9.40;92.30;;;;;;5075631;28;20089;-83
2020/12/20 06:22:30;;;;;;;5.35;3.78;;;9.40;92.40;;;;;;5047324;28;20443;-83
2020/12/20 06:25:04;;;;;;;7.63;3.63;;;9.40;92.60;;;;;;5012936;28;20078;-79
2020/12/20 06:27:30;;;;;;;6.15;3.92;;;9.50;92.30;;;;;;5040994;28;20115;-83
2020/12/20 06:29:57;;;;;;;7.65;4.22;;;9.40;92.30;;;;;;5026737;28;20036;-82
2020/12/20 06:32:42;;;;;;;10.30;4.00;;;9.40;92.30;;;;;;5011875;28;20038;-83
2020/12/20 06:35:14;;;;;;;7.85;4.45;;;9.40;92.30;;;;;;5039784;28;20033;-82
2020/12/20 06:37:41;;;;;;;4.35;3.40;;;9.40;92.30;;;;;;5029418;28;20115;-82
2020/12/20 06:40:07;;;;;;;6.43;4.70;;;9.40;92.40;;;;;;5028016;28;20029;-82
2020/12/20 06:42:39;;;;;;;6.45;3.75;;;9.40;92.40;;;;;;5053750;28;20055;-82
2020/12/20 06:45:20;;;;;;;7.57;4.63;;;9.40;92.40;;;;;;5038428;28;20037;-82
2020/12/20 06:47:49;;;;;;;7.30;4.75;;;9.40;92.40;;;;;;5023072;28;20418;-82
2020/12/20 06:50:33;;;;;;;6.85;4.65;;;9.50;92.40;;;;;;5009606;28;20520;-82
2020/12/20 06:52:59;;;;;;;7.18;3.83;;;9.50;92.40;;;;;;5051096;28;20515;-81
2020/12/20 06:55:24;;;;;;;4.80;3.92;;;9.50;92.30;;;;;;5040575;28;20020;-82
2020/12/20 06:58:11;;;;;;;9.18;4.55;;;9.50;92.40;;;;;;5028435;28;20045;-82
2020/12/20 07:00:46;;;;;;;;;;;9.40;92.40;;;;;;5053908;28;20033;-83
2020/12/20 07:03:36;;;;;;;5.70;3.88;;;9.40;92.40;;;;;;5066707;28;19969;-83
2020/12/20 07:06:07;;;;;;;7.15;4.28;;;9.40;92.40;;;;;;5048985;28;20032;-78
2020/12/20 07:08:34;;;;;;;6.72;3.95;;;9.40;92.40;;;;;;5067083;28;20058;-81
2020/12/20 07:11:00;;;;;;;8.48;4.57;;;9.40;92.40;;;;;;5019332;28;20558;-82
2020/12/20 07:13:36;;;;;;;8.73;4.45;;;9.40;92.40;;;;;;5039575;28;20020;-81
2020/12/20 07:16:24;;;;;;;7.93;4.43;;;9.40;92.40;;;;;;5039400;28;20041;-80
2020/12/20 07:18:59;;;;;;;8.23;4.72;;;9.40;92.40;;;;;;5052178;28;20028;-80
2020/12/20 07:21:28;;;;;;;7.35;4.75;;;9.40;92.40;;;;;;5042872;28;20028;-79
2020/12/20 07:24:00;;;;;;;6.40;4.15;;;9.40;92.40;;;;;;5075328;28;20024;-81
2020/12/20 07:26:25;;;;;;;6.82;5.25;;;9.40;92.50;;;;;;5038641;28;20564;-80
2020/12/20 07:28:51;;;;;;;8.90;5.10;;;9.30;92.40;;;;;;5036317;28;20032;-82
2020/12/20 07:31:18;;;;;;;6.28;4.30;;;9.30;92.50;;;;;;5023990;28;20036;-82
2020/12/20 07:33:43;;;;;;;7.07;4.22;;;9.30;92.50;;;;;;5038608;28;20044;-82
2020/12/20 07:36:09;;;;;;;8.55;4.93;;;9.30;92.40;;;;;;5026809;28;20055;-82
2020/12/20 07:38:34;;;;;;;8.55;4.65;;;9.20;92.40;;;;;;5012712;28;20024;-83
2020/12/20 07:41:00;;;;;;;7.68;5.45;;;9.20;92.60;;;;;;5011676;28;20171;-82
2020/12/20 07:43:25;;;;;;;9.65;5.43;;;9.20;92.60;;;;;;5012584;28;20027;-83
2020/12/20 07:46:00;;;;;;;8.73;5.10;;;9.20;92.50;;;;;;5039476;28;20029;-83
2020/12/20 07:48:26;;;;;;;7.78;5.13;;;9.20;92.60;;;;;;5016158;28;20498;-81
2020/12/20 07:50:52;;;;;;;5.80;3.80;;;9.20;92.60;;;;;;5023716;28;20021;-83
2020/12/20 07:53:18;;;;;;;6.90;4.32;;;9.20;92.60;;;;;;5012251;28;20033;-83
2020/12/20 07:55:48;;;;;;;4.88;4.13;;;9.20;92.60;;;;;;5052512;28;20410;-81
2020/12/20 07:58:14;;;;;;;9.32;5.35;;;9.20;92.50;;;;;;5035503;28;20036;-81
2020/12/20 08:00:44;;;;;;;14.90;5.25;;;9.10;92.60;;;;;;5031255;28;20065;-81
2020/12/20 08:03:10;;;;;;;8.27;4.70;;;9.10;92.60;;;;;;5037016;28;20055;-82
2020/12/20 08:05:36;;;;;;;7.45;4.75;;;9.10;92.60;;;;;;5027406;28;20483;-82
2020/12/20 08:08:01;;;;;;;7.22;4.82;;;9.10;92.70;;;;;;5038544;28;20025;-82
2020/12/20 08:10:27;;;;;;;12.00;5.30;;;9.10;92.70;;;;;;5039841;28;20647;-83
2020/12/20 08:12:53;;;;;;;8.05;5.47;;;9.10;92.80;;;;;;5022546;28;20038;-83
2020/12/20 08:15:18;;;;;;;9.07;5.47;;;9.10;92.70;;;;;;5056440;28;20028;-80
2020/12/20 08:17:44;;;;;;;7.13;5.10;;;9.10;92.70;;;;;;5038895;28;20028;-84
2020/12/20 08:20:09;;;;;;;7.43;5.05;;;9.20;92.80;;;;;;5028116;28;20037;-82
2020/12/20 08:22:35;;;;;;;10.18;5.43;;;9.20;92.80;;;;;;5023434;28;20052;-81
2020/12/20 08:25:10;;;;;;;6.38;4.50;;;9.20;92.70;;;;;;5019755;28;20104;-82
2020/12/20 08:27:42;;;;;;;7.43;4.17;;;9.20;92.80;;;;;;5027253;28;20067;-83
2020/12/20 08:30:08;;;;;;;6.32;4.40;;;9.20;92.70;;;;;;5027732;28;20354;-83
2020/12/20 08:32:43;;;;;;;6.60;4.60;;;9.20;92.80;;;;;;5011756;28;20551;-82
2020/12/20 08:35:16;;;;;;;4.97;4.03;;;9.30;92.70;;;;;;5028048;28;20041;-82
2020/12/20 08:37:43;;;;;;;9.63;5.03;;;9.20;92.70;;;;;;5027206;28;20412;-83
2020/12/20 08:40:10;;;;;;;7.35;4.50;;;9.20;93.10;;;;;;5005355;28;20048;-81
2020/12/20 08:42:35;;;;;;;5.05;3.85;;;9.30;92.70;;;;;;5046363;28;20379;-83
2020/12/20 08:45:10;;;;;;;6.45;3.80;;;9.30;92.70;;;;;;5025529;28;20020;-83
2020/12/20 08:47:35;;;;;;;6.55;4.30;;;9.40;92.60;;;;;;5025180;28;20135;-82
2020/12/20 08:50:01;;;;;;;6.20;4.68;;;9.40;92.60;;;;;;5039683;28;20124;-84
2020/12/20 08:52:27;;;;;;;8.02;5.28;;;9.50;92.60;;;;;;5036347;28;20024;-82
2020/12/20 08:54:54;;;;;;;7.97;4.20;;;9.50;92.60;;;;;;5022155;28;20082;-83
2020/12/20 08:57:29;;;;;;;7.03;4.15;;;9.50;92.60;;;;;;5039376;28;20391;-82
2020/12/20 09:00:05;;;;;;;7.22;3.92;;;9.50;92.60;;;;;;5040907;28;20059;-82
2020/12/20 09:02:31;;;;;;;5.38;4.20;;;9.50;92.50;;;;;;5023651;28;20966;-83
2020/12/20 09:05:00;;;;;;;8.88;5.05;;;9.50;92.50;;;;;;5044978;28;20113;-82
2020/12/20 09:07:37;;;;;;;7.03;4.03;;;9.60;92.40;;;;;;5040141;28;20109;-83
2020/12/20 09:10:03;;;;;;;8.38;4.63;;;9.60;92.40;;;;;;5014738;28;20037;-84
2020/12/20 09:12:29;;;;;;;10.77;5.93;;;9.60;92.40;;;;;;5058091;28;20039;-82
2020/12/20 09:15:08;;;;;;;7.38;4.85;;;9.60;92.60;;;;;;5028887;28;20222;-83
2020/12/20 09:17:39;;;;;;;8.13;4.53;;;9.70;92.40;;;;;;5048996;28;20376;-82
2020/12/20 09:20:06;;;;;;;9.50;5.10;;;9.70;92.40;;;;;;5041759;28;20036;-83
2020/12/20 09:22:42;;;;;;;8.43;5.45;;;9.90;92.40;;;;;;5044183;28;20032;-83
2020/12/20 09:25:08;;;;;;;5.45;4.25;;;9.80;92.40;;;;;;5027678;28;20044;-82
2020/12/20 09:27:34;;;;;;;6.57;4.30;;;9.90;92.40;;;;;;5045928;28;20033;-82
2020/12/20 09:30:00;;;;;;;8.07;4.72;;;9.90;92.40;;;;;;5055760;28;20803;-82
2020/12/20 09:32:26;;;;;;;7.10;5.07;;;10.00;91.60;;;;;;5041006;28;20073;-83
2020/12/20 09:34:52;;;;;;;10.10;5.97;;;10.00;91.60;;;;;;5041112;28;20038;-83
2020/12/20 09:37:17;;;;;;;7.43;4.55;;;10.00;91.60;;;;;;5027714;28;20039;-79
2020/12/20 09:39:59;;;;;;;10.43;6.70;;;10.00;91.70;;;;;;5016081;28;20055;-82
2020/12/20 09:42:27;;;;;;;9.63;4.72;;;10.10;91.60;;;;;;5045713;28;20032;-82
2020/12/20 09:44:53;;;;;;;6.63;4.50;;;10.10;91.60;;;;;;5047741;28;20035;-82
2020/12/20 09:47:18;;;;;;;12.68;6.40;;;10.20;91.60;;;;;;5038916;28;20108;-81
2020/12/20 09:49:44;;;;;;;7.88;4.45;;;10.20;91.60;;;;;;5022493;28;20027;-82
2020/12/20 09:52:09;;;;;;;6.25;4.72;;;10.20;91.50;;;;;;5022442;28;20060;-82
2020/12/20 09:54:36;;;;;;;8.32;3.80;;;10.30;91.40;;;;;;5015682;28;20474;-81
2020/12/20 09:57:01;;;;;;;5.88;3.80;;;10.30;91.30;;;;;;5054093;28;20484;-82
2020/12/20 09:59:27;;;;;;;10.90;4.88;;;10.50;91.30;;;;;;5036752;28;20042;-84
2020/12/20 10:01:52;;;;;;;8.63;4.05;;;10.50;91.10;;;;;;5040435;28;20110;-82
2020/12/20 10:04:18;;;;;;;7.78;3.55;;;10.70;91.40;;;;;;5024212;28;20038;-82
2020/12/20 10:06:44;;;;;;;8.32;4.35;;;10.80;91.30;;;;;;5048118;28;20100;-81
2020/12/20 10:09:09;;;;;;;8.70;4.13;;;10.90;91.00;;;;;;5014506;28;20469;-79
2020/12/20 10:11:35;;;;;;;7.43;4.38;;;11.10;91.00;;;;;;5048315;28;20024;-79
2020/12/20 10:14:00;;;;;;;5.70;3.22;;;11.20;90.90;;;;;;5009830;28;20026;-83
2020/12/20 10:16:26;;;;;;;6.07;3.58;;;11.40;90.90;;;;;;5014096;28;20036;-82
2020/12/20 10:18:52;;;;;;;7.65;4.13;;;11.60;90.40;;;;;;5055388;28;20039;-81
2020/12/20 10:21:17;;;;;;;6.75;4.10;;;11.60;90.40;;;;;;5023796;28;20472;-82
2020/12/20 10:23:43;;;;;;;6.65;3.40;;;11.60;90.60;;;;;;5031332;28;20395;-82
2020/12/20 10:26:10;;;;;;;6.40;3.53;;;11.90;91.10;;;;;;5046812;28;20128;-82
2020/12/20 10:28:36;;;;;;;6.78;3.90;;;12.10;90.00;;;;;;5030790;28;20035;-82
2020/12/20 10:31:01;;;;;;;7.50;3.78;;;12.20;90.10;;;;;;5039773;28;20540;-82
2020/12/20 10:33:27;;;;;;;4.63;3.10;;;12.10;89.50;;;;;;5033222;28;20032;-80
2020/12/20 10:35:52;;;;;;;6.57;3.45;;;12.20;89.20;;;;;;5039733;28;20442;-82
2020/12/20 10:38:18;;;;;;;5.88;3.00;;;12.20;89.30;;;;;;5068976;28;20028;-81
2020/12/20 10:40:43;;;;;;;7.30;3.80;;;12.20;89.20;;;;;;5028576;28;20408;-81
2020/12/20 10:43:09;;;;;;;6.85;3.20;;;12.20;88.40;;;;;;5028373;28;20028;-80
2020/12/20 10:45:34;;;;;;;6.38;3.00;;;12.20;88.90;;;;;;5029637;28;20068;-81
2020/12/20 10:48:00;;;;;;;5.60;2.65;;;12.20;87.80;;;;;;5033777;28;20086;-80
2020/12/20 10:50:25;;;;;;;2.88;1.95;;;12.10;87.50;;;;;;5039310;28;20438;-81
2020/12/20 10:52:51;;;;;;;6.78;2.33;;;12.00;87.60;;;;;;5009939;28;20391;-81
2020/12/20 10:55:16;;;;;;;9.38;3.78;;;12.00;87.40;;;;;;5032048;28;20029;-81
2020/12/20 10:57:42;;;;;;;7.85;2.85;;;12.10;87.00;;;;;;5024950;28;20040;-81
2020/12/20 11:00:07;;;;;;;8.52;3.30;;;12.00;86.70;;;;;;5066043;28;20041;-82
2020/12/20 11:02:33;;;;;;;11.70;2.88;;;12.00;86.60;;;;;;5034702;28;20033;-81
2020/12/20 11:04:59;;;;;;;6.43;2.60;;;12.00;86.70;;;;;;5020055;28;20028;-80
2020/12/20 11:07:24;;;;;;;5.20;2.50;;;12.00;86.70;;;;;;5007439;28;20036;-81
2020/12/20 11:09:50;;;;;;;10.50;3.28;;;12.00;86.80;;;;;;5042950;28;20595;-79
2020/12/20 11:12:15;;;;;;;7.32;2.92;;;12.00;86.60;;;;;;5040784;28;20526;-81
2020/12/20 11:14:41;;;;;;;11.45;3.42;;;12.10;86.80;;;;;;5025766;28;20496;-79
2020/12/20 11:17:06;;;;;;;6.82;2.70;;;12.10;86.20;;;;;;5039439;28;20500;-80
2020/12/20 11:19:32;;;;;;;4.50;2.05;;;12.00;86.00;;;;;;5021340;28;20043;-81
2020/12/20 11:21:57;;;;;;;5.30;2.53;;;12.00;85.70;;;;;;5033710;28;20039;-80
2020/12/20 11:24:23;;;;;;;3.92;2.72;;;12.10;85.90;;;;;;5021632;28;20035;-80
2020/12/20 11:26:49;;;;;;;6.32;2.97;;;12.10;86.30;;;;;;5039528;28;20032;-80
2020/12/20 11:29:16;;;;;;;5.63;2.28;;;12.10;86.10;;;;;;5027143;28;20506;-79
2020/12/20 11:31:41;;;;;;;8.63;3.13;;;12.10;86.30;;;;;;5025273;28;20028;-80
2020/12/20 11:34:07;;;;;;;5.43;2.08;;;12.10;86.70;;;;;;5053211;28;20395;-80
2020/12/20 11:36:33;;;;;;;7.10;3.00;;;12.10;85.60;;;;;;5019135;28;20029;-81
2020/12/20 11:38:58;;;;;;;9.77;2.92;;;12.10;85.60;;;;;;5020156;28;20115;-81
2020/12/20 11:41:25;;;;;;;5.22;1.95;;;12.10;85.80;;;;;;5041173;28;20035;-80
2020/12/20 11:43:51;;;;;;;7.03;2.30;;;12.00;85.10;;;;;;5038630;28;20032;-79
2020/12/20 11:46:17;;;;;;;6.90;2.38;;;12.10;85.40;;;;;;5028476;28;20047;-80
2020/12/20 11:48:42;;;;;;;8.30;3.00;;;12.00;84.90;;;;;;5027843;28;20728;-80
2020/12/20 11:51:12;;;;;;;6.72;2.78;;;12.10;85.70;;;;;;5043847;28;20033;-81
2020/12/20 11:53:38;;;;;;;5.50;1.90;;;12.10;85.00;;;;;;5028704;28;20042;-81
2020/12/20 11:56:07;;;;;;;9.40;2.78;;;12.10;84.70;;;;;;5039479;28;20494;-80
2020/12/20 11:58:33;;;;;;;12.07;4.22;;;12.10;85.00;;;;;;5028617;28;20441;-81
2020/12/20 12:00:59;;;;;;;13.68;3.13;;;12.10;85.00;;;;;;5026718;28;20046;-81
2020/12/20 12:03:24;;;;;;;7.30;2.38;;;12.10;84.60;;;;;;5042118;28;20024;-81
2020/12/20 12:05:50;;;;;;;4.72;2.45;;;12.10;85.00;;;;;;5027882;28;20024;-80
2020/12/20 12:08:15;;;;;;;6.28;2.30;;;12.10;84.30;;;;;;5031908;28;20024;-80
2020/12/20 12:10:42;;;;;;;6.57;2.17;;;12.10;84.70;;;;;;5028596;28;20507;-81
2020/12/20 12:13:07;;;;;;;13.93;3.13;;;12.20;84.50;;;;;;5029629;28;20123;-81
2020/12/20 12:15:33;;;;;;;6.43;2.20;;;12.20;85.10;;;;;;5039015;28;20439;-81
2020/12/20 12:17:58;;;;;;;11.73;2.63;;;12.20;85.30;;;;;;5024296;28;20035;-82
2020/12/20 12:20:24;;;;;;;7.15;2.45;;;12.20;85.00;;;;;;5009566;28;20029;-81
2020/12/20 12:22:49;;;;;;;7.72;2.85;;;12.10;84.50;;;;;;4339998;28;10000471;-82
2020/12/20 12:25:15;;;;;;;6.20;2.38;;;12.10;85.00;;;;;;5025636;28;20474;-80
2020/12/20 12:27:41;;;;;;;8.98;2.97;;;12.10;84.70;;;;;;5011553;28;20054;-81
2020/12/20 12:30:06;;;;;;;7.35;2.83;;;12.10;84.70;;;;;;5006758;28;20090;-81
2020/12/20 12:32:32;;;;;;;5.40;2.25;;;12.10;84.80;;;;;;5015260;28;20081;-81
2020/12/20 12:34:58;;;;;;;12.00;4.40;;;12.10;85.10;;;;;;5039284;28;20488;-81
2020/12/20 12:37:24;;;;;;;7.25;1.80;;;12.10;84.90;;;;;;5041150;28;20089;-80
2020/12/20 12:39:49;;;;;;;8.07;3.50;;;12.10;84.70;;;;;;5026980;28;20029;-79
2020/12/20 12:42:15;;;;;;;4.60;2.63;;;12.10;84.60;;;;;;5043391;28;20383;-80
2020/12/20 12:44:42;;;;;;;5.47;2.70;;;12.00;84.70;;;;;;5029877;28;20036;-79
2020/12/20 12:47:11;;;;;;;8.05;2.30;;;12.10;85.10;;;;;;5016289;28;20492;-80
2020/12/20 12:49:36;;;;;;;9.60;2.75;;;12.00;84.70;;;;;;5024806;28;20025;-81